Time;durP1;ratioP1;P1;durP2;ratioP2;P2;SDS_P1;SDS_P2;PMS_P1;PMS_P2;Temp;Humidity;BMP_temperature;BMP_pressure;BME280_temperature;BME280_humidity;BME280_pressure;Samples;Min_cycle;Max_cycle;Signal;HPM_P1;HPM_P2
2021/12/07 00:01:49;;;;;;;;;142.60;139.80;;;;;;;;6354570;22;8747;-78
2021/12/07 00:04:14;;;;;;;;;146.80;145.40;;;;;;;;6355209;22;8724;-78
2021/12/07 00:06:40;;;;;;;;;146.00;144.60;;;;;;;;6383326;22;8747;-78
2021/12/07 00:09:08;;;;;;;;;154.80;152.60;;;;;;;;6383616;22;8732;-78
2021/12/07 00:11:33;;;;;;;;;144.75;144.00;;;;;;;;6355150;22;8763;-78
2021/12/07 00:13:59;;;;;;;;;145.67;145.00;;;;;;;;6383725;22;8768;-78
2021/12/07 00:16:25;;;;;;;;;159.00;158.60;;;;;;;;6383881;22;8759;-78
2021/12/07 00:18:51;;;;;;;;;150.60;149.20;;;;;;;;6382851;22;8712;-78
2021/12/07 00:21:17;;;;;;;;;142.00;140.00;;;;;;;;6383222;22;8732;-78
2021/12/07 00:23:43;;;;;;;;;138.50;135.83;;;;;;;;6382803;22;9589;-78
2021/12/07 00:26:10;;;;;;;;;135.17;133.83;;;;;;;;6383292;22;8704;-78
2021/12/07 00:28:35;;;;;;;;;140.67;139.00;;;;;;;;6383831;22;8844;-78
2021/12/07 00:31:10;;;;;;;;;133.60;130.40;;;;;;;;6382971;22;10741;-78
2021/12/07 00:33:55;;;;;;;;;145.25;141.00;;;;;;;;6382804;22;8740;-78
2021/12/07 00:36:21;;;;;;;;;143.40;141.80;;;;;;;;6383385;22;8735;-78
2021/12/07 00:38:46;;;;;;;;;139.75;138.50;;;;;;;;6382712;22;8740;-78
2021/12/07 00:41:12;;;;;;;;;132.25;132.25;;;;;;;;6383579;22;9440;-78
2021/12/07 00:43:37;;;;;;;;;149.25;148.25;;;;;;;;6383233;22;8841;-78
2021/12/07 00:46:03;;;;;;;;;148.80;146.40;;;;;;;;6382829;22;8752;-77
2021/12/07 00:48:29;;;;;;;;;129.00;127.75;;;;;;;;6354393;22;8820;-78
2021/12/07 00:50:57;;;;;;;;;150.80;148.00;;;;;;;;6382232;22;11515;-77
2021/12/07 00:53:23;;;;;;;;;146.40;144.40;;;;;;;;6382660;22;8750;-77
2021/12/07 00:55:50;;;;;;;;;151.80;151.80;;;;;;;;6382814;22;8716;-78
2021/12/07 00:58:20;;;;;;;;;148.60;147.80;;;;;;;;6383068;22;8705;-78
2021/12/07 01:00:47;;;;;;;;;143.60;143.60;;;;;;;;6382352;22;8713;-78
2021/12/07 01:03:13;;;;;;;;;135.40;133.80;;;;;;;;6382807;22;8792;-77
2021/12/07 01:05:40;;;;;;;;;128.40;127.20;;;;;;;;6383671;22;8759;-77
2021/12/07 01:24:41;;;;;;;;;116.50;115.00;;;;;;;;6384394;22;8736;-77
2021/12/07 01:27:07;;;;;;;;;123.20;121.20;;;;;;;;6384334;22;8807;-78
2021/12/07 01:29:34;;;;;;;;;121.40;120.80;;;;;;;;6384280;22;8740;-77
2021/12/07 02:01:56;;;;;;;;;96.40;91.60;;;;;;;;6383705;22;8674;-78
2021/12/07 02:04:21;;;;;;;;;88.60;77.40;;;;;;;;6382176;22;9978;-78
2021/12/07 02:06:47;;;;;;;;;90.20;80.00;;;;;;;;6384158;22;8747;-78
2021/12/07 02:09:12;;;;;;;;;91.20;81.60;;;;;;;;6384325;22;8774;-78
2021/12/07 02:11:47;;;;;;;;;131.20;130.60;;;;;;;;6384382;22;8774;-78
2021/12/07 02:14:16;;;;;;;;;110.00;110.00;;;;;;;;6384315;22;8745;-78
2021/12/07 02:16:50;;;;;;;;;103.25;102.50;;;;;;;;6383717;22;8750;-78
2021/12/07 02:19:16;;;;;;;;;97.80;96.00;;;;;;;;6382234;22;8731;-78
2021/12/07 02:21:41;;;;;;;;;118.40;118.40;;;;;;;;6383531;22;8781;-78
2021/12/07 02:24:07;;;;;;;;;127.80;127.60;;;;;;;;6384338;22;8784;-78
2021/12/07 02:26:33;;;;;;;;;106.00;106.00;;;;;;;;6384107;22;8727;-78
2021/12/07 02:28:58;;;;;;;;;106.75;106.25;;;;;;;;6383944;22;8754;-78
2021/12/07 02:31:24;;;;;;;;;112.00;112.00;;;;;;;;6381015;22;8770;-78
2021/12/07 02:33:49;;;;;;;;;132.20;132.20;;;;;;;;6383237;22;8776;-78
2021/12/07 02:36:15;;;;;;;;;116.75;116.75;;;;;;;;6381119;22;8746;-78
2021/12/07 02:38:40;;;;;;;;;129.00;129.00;;;;;;;;6383906;22;8754;-77
2021/12/07 02:41:06;;;;;;;;;128.00;128.00;;;;;;;;6381754;22;8758;-78
2021/12/07 02:43:32;;;;;;;;;131.20;131.20;;;;;;;;6384064;22;8742;-78
2021/12/07 02:45:57;;;;;;;;;120.60;120.60;;;;;;;;6383733;22;8754;-78
2021/12/07 02:48:23;;;;;;;;;113.75;113.75;;;;;;;;6383639;22;8746;-78
2021/12/07 02:50:50;;;;;;;;;124.60;122.00;;;;;;;;6383349;22;8746;-78
2021/12/07 02:53:15;;;;;;;;;108.60;108.60;;;;;;;;6383689;22;8777;-77
2021/12/07 02:55:41;;;;;;;;;101.00;98.00;;;;;;;;6381713;22;8750;-78
2021/12/07 02:58:06;;;;;;;;;90.00;77.25;;;;;;;;6384324;22;11514;-77
2021/12/07 03:00:41;;;;;;;;;96.25;90.25;;;;;;;;6384294;22;8753;-77
2021/12/07 03:03:10;;;;;;;;;85.00;70.50;;;;;;;;6381235;22;8742;-77
2021/12/07 03:26:49;;;;;;;;;89.60;76.60;;;;;;;;6383476;22;8727;-77
2021/12/07 03:29:15;;;;;;;;;96.00;87.50;;;;;;;;6383760;22;8777;-77
2021/12/07 03:31:40;;;;;;;;;100.40;96.80;;;;;;;;6380842;22;8790;-78
2021/12/07 03:34:06;;;;;;;;;92.60;83.60;;;;;;;;6383928;22;8758;-78
2021/12/07 03:36:31;;;;;;;;;91.75;81.75;;;;;;;;6383617;22;8739;-77
2021/12/07 03:38:57;;;;;;;;;89.25;76.25;;;;;;;;6383410;22;8815;-78
2021/12/07 03:41:22;;;;;;;;;92.50;81.75;;;;;;;;6381512;22;11601;-78
2021/12/07 03:43:48;;;;;;;;;106.67;105.67;;;;;;;;6383027;22;8862;-78
2021/12/07 03:46:13;;;;;;;;;91.20;80.60;;;;;;;;6383884;22;8754;-78
2021/12/07 03:48:40;;;;;;;;;107.40;106.20;;;;;;;;6383232;22;8846;-77
2021/12/07 03:51:05;;;;;;;;;128.80;127.80;;;;;;;;6382570;22;8762;-78
2021/12/07 03:53:30;;;;;;;;;132.00;129.60;;;;;;;;6381008;22;8758;-78
2021/12/07 03:55:57;;;;;;;;;128.50;128.50;;;;;;;;6383557;22;8876;-78
2021/12/07 03:58:23;;;;;;;;;123.00;121.80;;;;;;;;6384101;22;8746;-78
2021/12/07 04:00:48;;;;;;;;;113.00;112.50;;;;;;;;6383188;22;8760;-78
2021/12/07 04:03:15;;;;;;;;;130.00;128.20;;;;;;;;6383106;22;9501;-77
2021/12/07 04:05:45;;;;;;;;;112.20;112.00;;;;;;;;6382869;22;8801;-78
2021/12/07 04:08:22;;;;;;;;;100.00;99.00;;;;;;;;6383937;22;9686;-78
2021/12/07 04:10:48;;;;;;;;;91.25;79.50;;;;;;;;6380566;22;8812;-78
2021/12/07 04:13:14;;;;;;;;;102.80;102.40;;;;;;;;6383515;22;8750;-78
2021/12/07 04:15:39;;;;;;;;;102.00;98.50;;;;;;;;6383452;22;8734;-78
2021/12/07 04:18:04;;;;;;;;;80.00;65.25;;;;;;;;6383464;22;8731;-78
2021/12/07 04:20:30;;;;;;;;;79.67;65.00;;;;;;;;6381072;22;9533;-78
2021/12/07 04:22:55;;;;;;;;;86.00;72.33;;;;;;;;6383175;22;8734;-78
2021/12/07 04:25:23;;;;;;;;;101.00;97.25;;;;;;;;6384097;22;8770;-78
2021/12/07 04:27:49;;;;;;;;;79.60;65.60;;;;;;;;6383087;22;9806;-78
2021/12/07 04:30:16;;;;;;;;;83.33;68.67;;;;;;;;6383742;22;8829;-77
2021/12/07 04:32:41;;;;;;;;;90.20;77.40;;;;;;;;6382872;22;8748;-77
2021/12/07 04:35:07;;;;;;;;;100.80;98.20;;;;;;;;6383034;22;8719;-78
2021/12/07 04:37:33;;;;;;;;;72.25;60.50;;;;;;;;6383681;22;9834;-77
2021/12/07 04:39:58;;;;;;;;;70.80;59.40;;;;;;;;6384035;22;8749;-77
2021/12/07 04:42:25;;;;;;;;;80.50;66.50;;;;;;;;6384558;22;8759;-78
2021/12/07 04:44:54;;;;;;;;;99.25;94.00;;;;;;;;6381985;22;8810;-78
2021/12/07 04:47:34;;;;;;;;;78.50;64.75;;;;;;;;6384528;22;8686;-78
2021/12/07 04:58:11;;;;;;;;;73.25;60.75;;;;;;;;6384929;22;8783;-78
2021/12/07 05:00:37;;;;;;;;;65.00;55.67;;;;;;;;6384735;22;8847;-78
2021/12/07 05:03:07;;;;;;;;;81.33;66.33;;;;;;;;6383948;22;11478;-77
2021/12/07 05:05:38;;;;;;;;;86.50;71.50;;;;;;;;6384540;22;11462;-77
2021/12/07 05:08:08;;;;;;;;;88.00;73.80;;;;;;;;6384294;22;8749;-78
2021/12/07 05:11:22;;;;;;;;;85.20;70.00;;;;;;;;6383908;22;8727;-78
2021/12/07 05:13:56;;;;;;;;;84.50;68.75;;;;;;;;6384044;22;8765;-78
2021/12/07 05:16:46;;;;;;;;;84.40;69.20;;;;;;;;6384785;22;11463;-77
2021/12/07 05:24:50;;;;;;;;;89.00;75.00;;;;;;;;6384097;22;8671;-77
2021/12/07 05:37:58;;;;;;;;;95.00;85.00;;;;;;;;6384184;22;8781;-77
2021/12/07 05:40:26;;;;;;;;;87.75;71.50;;;;;;;;6384522;22;8700;-78
2021/12/07 05:42:52;;;;;;;;;97.60;89.40;;;;;;;;6384490;22;8812;-78
2021/12/07 05:45:19;;;;;;;;;92.00;79.00;;;;;;;;6384507;22;8743;-77
2021/12/07 05:47:45;;;;;;;;;96.00;87.00;;;;;;;;6355206;22;9477;-77
2021/12/07 05:50:12;;;;;;;;;101.40;96.40;;;;;;;;6384255;22;8736;-77
2021/12/07 05:52:37;;;;;;;;;94.40;84.20;;;;;;;;6383347;22;8743;-77
2021/12/07 05:55:04;;;;;;;;;99.50;93.50;;;;;;;;6383925;22;8740;-77
2021/12/07 05:57:29;;;;;;;;;99.40;91.80;;;;;;;;6355941;22;8732;-77
2021/12/07 05:59:54;;;;;;;;;92.75;80.75;;;;;;;;6383971;22;8720;-77
2021/12/07 06:02:20;;;;;;;;;98.33;89.67;;;;;;;;6384035;22;8882;-78
2021/12/07 06:04:45;;;;;;;;;96.50;88.00;;;;;;;;6355139;22;8836;-78
2021/12/07 06:07:10;;;;;;;;;94.75;84.25;;;;;;;;6355194;22;8755;-78
2021/12/07 06:09:36;;;;;;;;;104.33;100.67;;;;;;;;6355606;22;8744;-78
2021/12/07 06:12:02;;;;;;;;;99.80;92.80;;;;;;;;6355360;22;11488;-77
2021/12/07 06:14:34;;;;;;;;;98.50;90.50;;;;;;;;6384163;22;8767;-77
2021/12/07 06:17:00;;;;;;;;;101.00;94.40;;;;;;;;6383398;22;8848;-77
2021/12/07 06:19:25;;;;;;;;;93.50;80.75;;;;;;;;6355547;22;8759;-77
2021/12/07 06:21:51;;;;;;;;;100.20;94.80;;;;;;;;6384081;22;12319;-78
2021/12/07 06:24:16;;;;;;;;;96.25;84.50;;;;;;;;6384248;22;8836;-78
2021/12/07 06:26:42;;;;;;;;;100.20;93.00;;;;;;;;6355073;22;8767;-77
2021/12/07 06:29:07;;;;;;;;;102.00;93.50;;;;;;;;6384073;22;8756;-77
2021/12/07 06:31:32;;;;;;;;;103.25;96.25;;;;;;;;6355039;22;8772;-77
2021/12/07 06:33:58;;;;;;;;;101.33;97.33;;;;;;;;6355490;22;8736;-78
2021/12/07 06:36:24;;;;;;;;;102.25;97.75;;;;;;;;6383617;22;9508;-78
2021/12/07 06:38:49;;;;;;;;;100.00;92.50;;;;;;;;6384334;22;8657;-78
2021/12/07 06:41:15;;;;;;;;;91.75;79.25;;;;;;;;6355044;22;9480;-78
2021/12/07 06:43:40;;;;;;;;;91.40;77.80;;;;;;;;6384039;22;8719;-78
2021/12/07 06:46:06;;;;;;;;;103.80;99.80;;;;;;;;6385286;22;8716;-76
2021/12/07 06:48:32;;;;;;;;;89.75;73.50;;;;;;;;6383777;22;8731;-77
2021/12/07 06:50:57;;;;;;;;;93.80;82.00;;;;;;;;6382994;22;8704;-77
2021/12/07 06:53:22;;;;;;;;;93.33;81.00;;;;;;;;6383718;22;8846;-77
2021/12/07 06:55:48;;;;;;;;;107.60;106.00;;;;;;;;6355174;22;11701;-76
2021/12/07 06:58:14;;;;;;;;;107.25;105.75;;;;;;;;6384102;22;8736;-76
2021/12/07 07:00:41;;;;;;;;;110.60;108.40;;;;;;;;6383869;22;10984;-78
2021/12/07 07:03:06;;;;;;;;;95.50;84.75;;;;;;;;6383299;22;8708;-78
2021/12/07 07:05:31;;;;;;;;;97.25;89.75;;;;;;;;6383653;22;8842;-78
2021/12/07 07:07:57;;;;;;;;;103.75;100.25;;;;;;;;6383889;22;8720;-77
2021/12/07 07:10:23;;;;;;;;;111.60;106.40;;;;;;;;6383811;22;8736;-78
2021/12/07 07:12:49;;;;;;;;;100.60;93.40;;;;;;;;6385363;22;8720;-78
2021/12/07 07:15:14;;;;;;;;;96.00;85.75;;;;;;;;6384041;22;8727;-78
2021/12/07 07:17:40;;;;;;;;;106.50;102.50;;;;;;;;6383384;22;8720;-78
2021/12/07 07:20:07;;;;;;;;;105.80;98.80;;;;;;;;6383823;22;8746;-78
2021/12/07 07:22:33;;;;;;;;;104.25;102.75;;;;;;;;6383851;22;8720;-78
2021/12/07 07:24:58;;;;;;;;;97.80;89.00;;;;;;;;6355263;22;8740;-78
2021/12/07 07:27:24;;;;;;;;;97.67;87.33;;;;;;;;6384337;22;8760;-78
2021/12/07 07:29:49;;;;;;;;;98.25;88.00;;;;;;;;6383872;22;10573;-78
2021/12/07 07:32:15;;;;;;;;;97.00;88.00;;;;;;;;6383858;22;11101;-78
2021/12/07 07:34:40;;;;;;;;;101.00;96.00;;;;;;;;6383794;22;8708;-78
2021/12/07 07:37:05;;;;;;;;;94.00;82.75;;;;;;;;6383934;22;8731;-79
2021/12/07 07:39:31;;;;;;;;;103.25;99.75;;;;;;;;6355062;22;8731;-79
2021/12/07 07:41:56;;;;;;;;;102.60;100.20;;;;;;;;6383763;22;8842;-78
2021/12/07 07:44:21;;;;;;;;;83.75;67.75;;;;;;;;6384153;22;8728;-78
2021/12/07 07:46:47;;;;;;;;;100.80;96.20;;;;;;;;6383037;22;11442;-78
2021/12/07 07:49:12;;;;;;;;;129.60;126.20;;;;;;;;6384057;22;9535;-79
2021/12/07 07:51:37;;;;;;;;;130.00;129.40;;;;;;;;6382830;22;8764;-78
2021/12/07 07:54:04;;;;;;;;;140.00;136.25;;;;;;;;6383842;22;8764;-79
2021/12/07 07:56:29;;;;;;;;;145.20;142.80;;;;;;;;6384059;22;8708;-78
2021/12/07 07:58:57;;;;;;;;;137.60;136.60;;;;;;;;6383541;22;8743;-78
2021/12/07 08:01:30;;;;;;;;;157.80;155.00;;;;;;;;6383615;22;8716;-78
2021/12/07 08:03:55;;;;;;;;;162.50;160.50;;;;;;;;6383564;22;8692;-78
2021/12/07 08:06:21;;;;;;;;;143.40;140.80;;;;;;;;6383647;22;9843;-78
2021/12/07 08:08:46;;;;;;;;;151.00;146.50;;;;;;;;6383179;22;8729;-78
2021/12/07 08:11:13;;;;;;;;;158.25;156.50;;;;;;;;6383912;22;8799;-78
2021/12/07 08:13:39;;;;;;;;;171.20;168.60;;;;;;;;6383363;22;8704;-78
2021/12/07 08:16:06;;;;;;;;;145.67;140.33;;;;;;;;6355156;22;8848;-78
2021/12/07 08:18:31;;;;;;;;;147.60;144.20;;;;;;;;6383929;22;8696;-79
2021/12/07 08:20:56;;;;;;;;;158.75;156.25;;;;;;;;6383479;22;8739;-79
2021/12/07 08:23:22;;;;;;;;;131.00;129.50;;;;;;;;6384297;22;8740;-79
2021/12/07 08:25:47;;;;;;;;;140.40;138.00;;;;;;;;6355676;22;9559;-79
2021/12/07 08:28:15;;;;;;;;;127.40;123.40;;;;;;;;6383780;22;8866;-79
2021/12/07 08:30:41;;;;;;;;;119.20;116.00;;;;;;;;6383223;22;8705;-79
2021/12/07 08:33:07;;;;;;;;;124.00;119.20;;;;;;;;6355010;22;8736;-79
2021/12/07 08:35:32;;;;;;;;;121.00;118.25;;;;;;;;6383029;22;8796;-79
2021/12/07 08:37:58;;;;;;;;;110.25;108.75;;;;;;;;6382120;22;8750;-79
2021/12/07 08:40:25;;;;;;;;;123.80;122.60;;;;;;;;6355067;22;8775;-78
2021/12/07 08:42:51;;;;;;;;;122.20;120.20;;;;;;;;6354736;22;8783;-78
2021/12/07 08:45:17;;;;;;;;;129.00;124.00;;;;;;;;6383857;22;9429;-79
2021/12/07 08:47:43;;;;;;;;;138.40;137.00;;;;;;;;6382716;22;8713;-78
2021/12/07 08:50:14;;;;;;;;;117.40;113.60;;;;;;;;6358674;22;8750;-79
2021/12/07 08:52:40;;;;;;;;;131.60;127.80;;;;;;;;6382909;22;9526;-79
2021/12/07 09:00:25;;;;;;;;;138.00;138.00;;;;;;;;6383168;22;8726;-79
2021/12/07 09:02:50;;;;;;;;;141.20;140.20;;;;;;;;6382656;22;8753;-79
2021/12/07 09:05:17;;;;;;;;;158.25;156.00;;;;;;;;6382626;22;8779;-79
2021/12/07 09:07:43;;;;;;;;;128.20;126.60;;;;;;;;6382748;22;9621;-79
2021/12/07 09:10:12;;;;;;;;;136.80;135.80;;;;;;;;6383519;22;8723;-79
2021/12/07 09:12:37;;;;;;;;;134.40;132.80;;;;;;;;6383477;22;8734;-79
2021/12/07 09:15:03;;;;;;;;;132.80;131.60;;;;;;;;6383043;22;8837;-79
2021/12/07 09:17:31;;;;;;;;;134.00;132.80;;;;;;;;6383205;22;8731;-80
2021/12/07 09:19:56;;;;;;;;;148.00;143.33;;;;;;;;6382795;22;8723;-80
2021/12/07 09:22:21;;;;;;;;;153.80;150.80;;;;;;;;6383384;22;8753;-79
2021/12/07 09:24:47;;;;;;;;;143.00;141.40;;;;;;;;6383134;22;8726;-79
2021/12/07 09:27:12;;;;;;;;;136.20;135.40;;;;;;;;6384615;22;8734;-79
2021/12/07 09:29:38;;;;;;;;;159.00;154.75;;;;;;;;6384882;22;8734;-79
2021/12/07 09:32:03;;;;;;;;;140.50;138.75;;;;;;;;6384185;22;8786;-79
2021/12/07 09:34:29;;;;;;;;;135.80;133.20;;;;;;;;6384562;22;8730;-79
2021/12/07 09:36:54;;;;;;;;;157.75;157.75;;;;;;;;6384298;22;8766;-79
2021/12/07 09:39:19;;;;;;;;;143.00;140.25;;;;;;;;6384400;22;8734;-79
2021/12/07 09:41:46;;;;;;;;;130.40;129.00;;;;;;;;6384054;22;8765;-79
2021/12/07 09:44:11;;;;;;;;;138.60;136.40;;;;;;;;6382196;22;8722;-79
2021/12/07 09:46:37;;;;;;;;;140.00;136.80;;;;;;;;6384416;22;8749;-79
2021/12/07 09:49:04;;;;;;;;;141.75;138.25;;;;;;;;6384051;22;8727;-78
2021/12/07 09:51:30;;;;;;;;;146.50;145.00;;;;;;;;6383455;22;8730;-78
2021/12/07 09:53:56;;;;;;;;;137.75;136.00;;;;;;;;6384114;22;8770;-78
2021/12/07 09:56:22;;;;;;;;;145.50;143.25;;;;;;;;6384501;22;9699;-78
2021/12/07 09:58:49;;;;;;;;;163.40;158.80;;;;;;;;6383557;22;10621;-78
2021/12/07 10:01:15;;;;;;;;;144.40;144.20;;;;;;;;6384084;22;8757;-78
2021/12/07 10:03:41;;;;;;;;;158.60;158.60;;;;;;;;6384290;22;8746;-79
2021/12/07 10:06:06;;;;;;;;;159.60;158.80;;;;;;;;6381572;22;9495;-78
2021/12/07 10:08:32;;;;;;;;;160.50;159.25;;;;;;;;6384142;22;8813;-78
2021/12/07 10:10:59;;;;;;;;;160.20;157.40;;;;;;;;6383758;22;11455;-78
2021/12/07 10:13:27;;;;;;;;;163.75;161.25;;;;;;;;6382171;22;9478;-80
2021/12/07 10:15:53;;;;;;;;;158.25;156.50;;;;;;;;6384319;22;8749;-78
2021/12/07 10:18:21;;;;;;;;;166.00;164.00;;;;;;;;6384227;22;8679;-78
2021/12/07 10:20:49;;;;;;;;;161.50;159.83;;;;;;;;6383345;22;8764;-77
2021/12/07 10:23:18;;;;;;;;;155.20;153.00;;;;;;;;6381642;22;8800;-78
2021/12/07 10:25:48;;;;;;;;;155.80;153.80;;;;;;;;6383414;22;9701;-78
2021/12/07 10:28:42;;;;;;;;;160.80;158.00;;;;;;;;6383919;22;8732;-78
2021/12/07 10:31:20;;;;;;;;;170.00;170.00;;;;;;;;6355696;22;8820;-78
2021/12/07 10:33:47;;;;;;;;;156.20;153.80;;;;;;;;6383844;22;8746;-78
2021/12/07 10:36:12;;;;;;;;;154.00;152.25;;;;;;;;6381968;22;9695;-78
2021/12/07 10:38:38;;;;;;;;;146.75;145.25;;;;;;;;6384401;22;8746;-79
2021/12/07 10:41:07;;;;;;;;;156.60;154.40;;;;;;;;6381959;22;8760;-79
2021/12/07 10:44:02;;;;;;;;;149.00;144.40;;;;;;;;6383677;22;9620;-78
2021/12/07 10:46:38;;;;;;;;;175.50;172.50;;;;;;;;6355337;22;8755;-78
2021/12/07 10:49:13;;;;;;;;;151.50;151.00;;;;;;;;6383768;22;10237;-78
2021/12/07 10:51:38;;;;;;;;;158.20;158.20;;;;;;;;6382567;22;8762;-79
2021/12/07 10:54:04;;;;;;;;;165.00;162.80;;;;;;;;6384061;22;8758;-79
2021/12/07 10:56:35;;;;;;;;;156.00;155.75;;;;;;;;6384326;22;8745;-78
2021/12/07 10:59:04;;;;;;;;;146.50;146.00;;;;;;;;6383761;22;8764;-78
2021/12/07 11:01:30;;;;;;;;;148.67;147.83;;;;;;;;6383685;22;8718;-79
2021/12/07 11:04:15;;;;;;;;;148.00;147.50;;;;;;;;6384159;22;8730;-78
2021/12/07 11:06:59;;;;;;;;;150.17;147.33;;;;;;;;6383250;22;8734;-78
2021/12/07 11:09:25;;;;;;;;;160.60;157.80;;;;;;;;6384102;22;8735;-78
2021/12/07 11:12:04;;;;;;;;;148.50;147.75;;;;;;;;6383651;22;8850;-78
2021/12/07 11:14:37;;;;;;;;;158.80;156.60;;;;;;;;6383955;22;8772;-78
2021/12/07 11:17:03;;;;;;;;;156.80;156.40;;;;;;;;6383882;22;8727;-77
2021/12/07 11:19:29;;;;;;;;;153.25;153.25;;;;;;;;6384142;22;8734;-79
2021/12/07 11:21:55;;;;;;;;;163.83;162.33;;;;;;;;6381124;22;8895;-78
2021/12/07 11:24:20;;;;;;;;;166.50;164.50;;;;;;;;6383989;22;8742;-78
2021/12/07 11:29:42;;;;;;;;;186.20;186.00;;;;;;;;6383456;22;8739;-79
2021/12/07 11:32:09;;;;;;;;;176.60;176.40;;;;;;;;6380250;22;9669;-79
2021/12/07 11:34:41;;;;;;;;;164.80;164.40;;;;;;;;6383889;22;8719;-79
2021/12/07 11:37:09;;;;;;;;;155.67;154.00;;;;;;;;6381962;22;8738;-79
2021/12/07 11:39:47;;;;;;;;;202.00;201.60;;;;;;;;6381475;22;8743;-79
2021/12/07 11:42:15;;;;;;;;;153.83;153.83;;;;;;;;6384620;22;8815;-79
2021/12/07 11:44:49;;;;;;;;;166.20;166.00;;;;;;;;6383658;22;8757;-79
2021/12/07 11:47:15;;;;;;;;;168.20;168.20;;;;;;;;6383891;22;9655;-78
2021/12/07 11:49:40;;;;;;;;;163.80;163.00;;;;;;;;6383384;22;8935;-79
2021/12/07 11:52:08;;;;;;;;;172.60;172.60;;;;;;;;6383339;22;8786;-79
2021/12/07 11:54:35;;;;;;;;;161.50;158.33;;;;;;;;6383504;22;8762;-79
2021/12/07 11:57:02;;;;;;;;;138.00;138.00;;;;;;;;6383905;22;8727;-79
2021/12/07 11:59:28;;;;;;;;;125.60;125.60;;;;;;;;6384146;22;9672;-79
2021/12/07 12:01:53;;;;;;;;;161.50;159.50;;;;;;;;6383225;22;8789;-79
2021/12/07 12:04:19;;;;;;;;;148.20;146.00;;;;;;;;6384206;22;8762;-79
2021/12/07 12:06:46;;;;;;;;;136.60;136.60;;;;;;;;6383318;22;8734;-79
2021/12/07 12:09:12;;;;;;;;;129.20;128.80;;;;;;;;6382099;22;8734;-79
2021/12/07 12:12:00;;;;;;;;;143.00;141.75;;;;;;;;6381402;22;8750;-79
2021/12/07 12:14:47;;;;;;;;;136.40;136.00;;;;;;;;6366006;22;9718;-79
2021/12/07 12:17:16;;;;;;;;;129.60;128.80;;;;;;;;6381269;22;8758;-78
2021/12/07 12:20:00;;;;;;;;;128.40;128.00;;;;;;;;6386915;22;8765;-78
2021/12/07 12:22:42;;;;;;;;;134.80;134.00;;;;;;;;6383304;22;8750;-79
2021/12/07 12:25:10;;;;;;;;;130.60;128.80;;;;;;;;6384171;22;10092;-79
2021/12/07 12:27:36;;;;;;;;;132.00;131.40;;;;;;;;6383630;22;8858;-79
2021/12/07 12:30:15;;;;;;;;;130.20;129.20;;;;;;;;6383554;22;8754;-79
2021/12/07 12:32:45;;;;;;;;;129.20;129.20;;;;;;;;6380544;22;8722;-80
2021/12/07 12:35:11;;;;;;;;;124.40;123.80;;;;;;;;6383703;22;9676;-79
2021/12/07 12:37:37;;;;;;;;;116.60;116.00;;;;;;;;6381617;22;8754;-79
2021/12/07 12:40:02;;;;;;;;;134.80;134.60;;;;;;;;6383740;22;8745;-80
2021/12/07 12:42:35;;;;;;;;;124.67;124.33;;;;;;;;6383440;22;8755;-80
2021/12/07 12:45:22;;;;;;;;;143.60;140.40;;;;;;;;6380848;22;9655;-80
2021/12/07 12:47:56;;;;;;;;;135.40;134.20;;;;;;;;6382221;22;8723;-80
2021/12/07 12:50:24;;;;;;;;;129.40;128.20;;;;;;;;6383441;22;8745;-80
2021/12/07 12:52:58;;;;;;;;;131.33;130.67;;;;;;;;6383101;22;8718;-80
2021/12/07 12:55:34;;;;;;;;;123.60;122.60;;;;;;;;6383808;22;10117;-80
2021/12/07 12:58:01;;;;;;;;;137.40;135.20;;;;;;;;6383075;22;8726;-80
2021/12/07 13:00:46;;;;;;;;;124.50;124.50;;;;;;;;6383571;22;8781;-80
2021/12/07 13:03:12;;;;;;;;;127.20;124.80;;;;;;;;6384685;22;8731;-80
2021/12/07 13:05:42;;;;;;;;;120.50;120.50;;;;;;;;6384768;22;8735;-79
2021/12/07 13:08:15;;;;;;;;;122.40;119.60;;;;;;;;6382635;22;9153;-79
2021/12/07 13:11:00;;;;;;;;;129.50;127.33;;;;;;;;6384788;22;8745;-79
2021/12/07 13:13:29;;;;;;;;;119.25;119.25;;;;;;;;6382354;22;8765;-79
2021/12/07 13:15:55;;;;;;;;;130.40;130.40;;;;;;;;6384130;22;8726;-79
2021/12/07 13:18:21;;;;;;;;;124.80;124.60;;;;;;;;6385065;22;8762;-79
2021/12/07 13:20:50;;;;;;;;;120.80;120.40;;;;;;;;6384500;22;8746;-79
2021/12/07 13:23:16;;;;;;;;;126.40;125.20;;;;;;;;6384314;22;8730;-79
2021/12/07 13:25:42;;;;;;;;;127.75;122.00;;;;;;;;6384381;22;8800;-79
2021/12/07 13:28:11;;;;;;;;;121.80;121.00;;;;;;;;6384997;22;9659;-79
2021/12/07 13:30:46;;;;;;;;;132.00;130.50;;;;;;;;6384695;22;8769;-80
2021/12/07 13:33:34;;;;;;;;;130.20;127.80;;;;;;;;6384327;22;8695;-79
2021/12/07 13:36:00;;;;;;;;;118.40;117.00;;;;;;;;6383319;22;8747;-79
2021/12/07 13:38:27;;;;;;;;;116.60;115.40;;;;;;;;6382912;22;8738;-79
2021/12/07 13:41:12;;;;;;;;;144.67;144.50;;;;;;;;6384469;22;8762;-79
2021/12/07 13:43:38;;;;;;;;;154.20;154.00;;;;;;;;6381649;22;9667;-79
2021/12/07 13:46:08;;;;;;;;;120.40;118.80;;;;;;;;6383912;22;8762;-79
2021/12/07 13:48:34;;;;;;;;;154.50;154.00;;;;;;;;6384449;22;8778;-79
2021/12/07 13:50:59;;;;;;;;;168.60;167.80;;;;;;;;6384016;22;8912;-79
2021/12/07 13:53:26;;;;;;;;;145.00;139.75;;;;;;;;6381775;22;9514;-79
2021/12/07 13:55:52;;;;;;;;;137.60;128.20;;;;;;;;6383722;22;9435;-79
2021/12/07 13:58:17;;;;;;;;;132.40;127.40;;;;;;;;6384778;22;8777;-79
2021/12/07 14:00:42;;;;;;;;;123.00;120.25;;;;;;;;6384053;22;9549;-80
2021/12/07 14:03:09;;;;;;;;;122.33;118.67;;;;;;;;6384055;22;8754;-80
2021/12/07 14:05:36;;;;;;;;;122.80;122.60;;;;;;;;6382127;22;11678;-79
2021/12/07 14:08:03;;;;;;;;;138.00;135.75;;;;;;;;6383994;22;8727;-79
2021/12/07 14:10:32;;;;;;;;;126.75;126.75;;;;;;;;6384554;22;10479;-79
2021/12/07 14:12:59;;;;;;;;;158.80;156.40;;;;;;;;6383495;22;8742;-79
2021/12/07 14:15:26;;;;;;;;;119.20;117.80;;;;;;;;6384293;22;8754;-80
2021/12/07 14:17:54;;;;;;;;;121.00;119.00;;;;;;;;6384083;22;10931;-80
2021/12/07 14:20:31;;;;;;;;;152.40;150.20;;;;;;;;6381674;22;8834;-80
2021/12/07 14:22:57;;;;;;;;;117.80;115.20;;;;;;;;6383869;22;8722;-79
2021/12/07 14:25:22;;;;;;;;;156.60;154.40;;;;;;;;6384463;22;8779;-79
2021/12/07 14:27:47;;;;;;;;;148.00;147.25;;;;;;;;6384168;22;8746;-78
2021/12/07 14:30:14;;;;;;;;;127.50;126.50;;;;;;;;6384256;22;8735;-78
2021/12/07 14:32:43;;;;;;;;;152.00;149.20;;;;;;;;6383710;22;9766;-79
2021/12/07 14:35:09;;;;;;;;;141.40;140.00;;;;;;;;6383877;22;9683;-79
2021/12/07 14:37:34;;;;;;;;;119.20;117.40;;;;;;;;6384370;22;8735;-79
2021/12/07 14:40:00;;;;;;;;;167.20;165.60;;;;;;;;6383873;22;8746;-78
2021/12/07 14:42:27;;;;;;;;;134.75;134.00;;;;;;;;6384047;22;8738;-78
2021/12/07 14:44:56;;;;;;;;;116.20;114.40;;;;;;;;6384126;22;8773;-79
2021/12/07 14:47:21;;;;;;;;;124.20;122.80;;;;;;;;6383845;22;8731;-78
2021/12/07 14:49:50;;;;;;;;;132.50;132.25;;;;;;;;6384010;22;8734;-77
2021/12/07 14:52:17;;;;;;;;;133.60;132.80;;;;;;;;6381569;22;8810;-79
2021/12/07 14:54:43;;;;;;;;;152.60;151.00;;;;;;;;6380249;22;8837;-79
2021/12/07 14:57:08;;;;;;;;;123.80;121.80;;;;;;;;6384342;22;8722;-80
2021/12/07 14:59:35;;;;;;;;;130.80;129.20;;;;;;;;6384310;22;8761;-80
2021/12/07 15:02:00;;;;;;;;;149.33;144.67;;;;;;;;6383562;22;8739;-80
2021/12/07 15:04:26;;;;;;;;;121.67;117.33;;;;;;;;6384155;22;8765;-81
2021/12/07 15:06:56;;;;;;;;;119.60;118.60;;;;;;;;6381524;22;8849;-81
2021/12/07 15:09:22;;;;;;;;;121.20;120.00;;;;;;;;6384236;22;8777;-80
2021/12/07 15:11:52;;;;;;;;;124.75;124.75;;;;;;;;6383782;22;8762;-80
2021/12/07 15:14:29;;;;;;;;;;;;;;;;;;;;;
2021/12/07 15:16:59;;;;;;;;;144.00;143.80;;;;;;;;6381454;22;36854;-79
2021/12/07 15:19:27;;;;;;;;;129.60;129.40;;;;;;;;6383521;22;8737;-79
2021/12/07 15:21:54;;;;;;;;;115.80;114.20;;;;;;;;6383587;22;8738;-79
2021/12/07 15:24:20;;;;;;;;;123.80;122.20;;;;;;;;6381381;22;8960;-79
2021/12/07 15:26:47;;;;;;;;;131.50;130.25;;;;;;;;6381857;22;8699;-79
2021/12/07 15:29:17;;;;;;;;;142.60;141.20;;;;;;;;6381918;22;8758;-79
2021/12/07 15:31:44;;;;;;;;;119.00;115.60;;;;;;;;6383162;22;8734;-79
2021/12/07 15:34:11;;;;;;;;;115.40;113.80;;;;;;;;6382102;22;8764;-79
2021/12/07 15:36:40;;;;;;;;;119.20;119.20;;;;;;;;6383799;22;8722;-79
2021/12/07 15:39:10;;;;;;;;;117.60;116.20;;;;;;;;6383628;22;11530;-80
2021/12/07 15:41:37;;;;;;;;;112.25;111.25;;;;;;;;6383755;22;8719;-80
2021/12/07 15:44:03;;;;;;;;;115.00;112.75;;;;;;;;6383762;22;8722;-80
2021/12/07 15:46:28;;;;;;;;;119.80;118.80;;;;;;;;6382001;22;8823;-79
2021/12/07 15:48:55;;;;;;;;;110.75;109.75;;;;;;;;6383751;22;8892;-79
2021/12/07 15:51:20;;;;;;;;;110.60;110.00;;;;;;;;6383514;22;8758;-79
2021/12/07 15:53:45;;;;;;;;;116.50;115.75;;;;;;;;6383311;22;8754;-79
2021/12/07 15:56:18;;;;;;;;;115.00;114.00;;;;;;;;6383968;22;8774;-79